Time;durP1;ratioP1;P1;durP2;ratioP2;P2;SDS_P1;SDS_P2;PMS_P1;PMS_P2;Temp;Humidity;BMP_temperature;BMP_pressure;BME280_temperature;BME280_humidity;BME280_pressure;Samples;Min_cycle;Max_cycle;Signal;HPM_P1;HPM_P2
2021/08/05 00:01:11;;;;;;;2.20;2.00;;;;;;;17.65;87.41;98260.78;4938401;28;104563;-60
2021/08/05 00:03:40;;;;;;;1.90;1.80;;;;;;;17.74;86.77;98257.09;4941943;28;104273;-59
2021/08/05 00:06:24;;;;;;;2.50;2.03;;;;;;;17.52;87.89;98252.34;4940700;28;102949;-60
2021/08/05 00:08:53;;;;;;;4.13;2.25;;;;;;;17.57;87.84;98250.06;4940676;28;102683;-60
2021/08/05 00:11:21;;;;;;;2.75;2.15;;;;;;;17.44;88.15;98243.50;4941936;28;104706;-60
2021/08/05 00:13:50;;;;;;;2.80;2.00;;;;;;;17.45;88.14;98232.66;4925289;28;104110;-59
2021/08/05 00:16:18;;;;;;;2.30;2.08;;;;;;;17.52;87.71;98239.00;4938714;28;102636;-59
2021/08/05 00:18:46;;;;;;;1.73;1.63;;;;;;;17.61;87.18;98235.38;4944646;28;102939;-59
2021/08/05 00:21:16;;;;;;;1.63;1.50;;;;;;;17.64;86.83;98237.72;4942637;28;103340;-61
2021/08/05 00:23:44;;;;;;;1.67;1.50;;;;;;;17.70;86.44;98239.72;4923575;28;103796;-60
2021/08/05 00:26:14;;;;;;;1.50;1.40;;;;;;;17.72;86.60;98240.41;4940949;28;102931;-60
2021/08/05 00:28:43;;;;;;;1.42;1.33;;;;;;;17.73;86.62;98238.56;4939628;28;103111;-60
2021/08/05 00:31:12;;;;;;;2.45;1.42;;;;;;;17.75;86.60;98241.91;4922239;28;103647;-60
2021/08/05 00:33:40;;;;;;;1.65;1.33;;;;;;;17.75;86.15;98237.38;4942111;28;103679;-60
2021/08/05 00:36:09;;;;;;;1.40;1.30;;;;;;;17.79;86.19;98233.41;4942280;28;102934;-60
2021/08/05 00:38:37;;;;;;;1.60;1.50;;;;;;;17.73;86.95;98238.56;4924439;28;102893;-59
2021/08/05 00:41:06;;;;;;;2.70;2.20;;;;;;;17.75;87.06;98242.72;4941653;28;103722;-60
2021/08/05 00:43:35;;;;;;;1.58;1.35;;;;;;;17.79;86.58;98241.41;4923721;28;104851;-60
2021/08/05 00:46:04;;;;;;;2.42;2.10;;;;;;;17.82;86.33;98254.41;4940797;28;102613;-59
2021/08/05 00:48:32;;;;;;;2.25;1.70;;;;;;;17.75;86.90;98253.41;4943965;28;102726;-60
2021/08/05 00:51:01;;;;;;;1.60;1.50;;;;;;;17.79;86.75;98254.78;4923548;28;103464;-60
2021/08/05 00:53:29;;;;;;;2.30;1.90;;;;;;;17.81;86.19;98252.75;4924037;28;104403;-59
2021/08/05 00:55:58;;;;;;;3.10;1.85;;;;;;;17.81;86.17;98252.75;4924260;28;102606;-59
2021/08/05 00:58:26;;;;;;;2.03;1.67;;;;;;;17.83;86.33;98245.41;4940137;28;102666;-59
2021/08/05 01:01:04;;;;;;;1.90;1.60;;;;;;;17.87;86.01;98252.09;4939753;28;103387;-59
2021/08/05 01:03:37;;;;;;;1.60;1.50;;;;;;;17.90;85.23;98242.91;4936685;28;104434;-59
2021/08/05 01:06:15;;;;;;;1.63;1.52;;;;;;;17.96;85.26;98251.06;4938882;28;102635;-59
2021/08/05 01:08:50;;;;;;;1.50;1.40;;;;;;;17.96;85.28;98252.94;4923106;28;102618;-59
2021/08/05 01:11:23;;;;;;;2.53;2.33;;;;;;;17.90;85.22;98235.72;4926291;28;103488;-59
2021/08/05 01:13:56;;;;;;;1.88;1.60;;;;;;;17.90;85.46;98235.72;4940809;28;104421;-59
2021/08/05 01:16:30;;;;;;;2.65;1.88;;;;;;;17.92;85.21;98232.88;4943140;28;102874;-59
2021/08/05 01:19:07;;;;;;;2.08;1.88;;;;;;;17.89;85.35;98226.03;4922635;28;102713;-58
2021/08/05 01:21:47;;;;;;;2.05;1.85;;;;;;;17.90;85.42;98227.72;4940787;28;103228;-59
2021/08/05 01:24:20;;;;;;;1.80;1.65;;;;;;;17.88;85.36;98236.91;4922398;28;103260;-58
2021/08/05 01:26:59;;;;;;;1.60;1.50;;;;;;;17.89;85.35;98236.72;4940880;28;102675;-59
2021/08/05 01:29:32;;;;;;;2.35;2.10;;;;;;;17.82;85.95;98233.03;4939780;28;103175;-58
2021/08/05 01:32:04;;;;;;;1.70;1.60;;;;;;;17.82;85.73;98233.03;4938150;28;103809;-59
2021/08/05 01:34:33;;;;;;;2.22;1.80;;;;;;;17.83;85.68;98229.38;4923372;28;103298;-59
2021/08/05 01:37:02;;;;;;;1.70;1.60;;;;;;;17.80;85.75;98229.69;4923278;28;103099;-59
2021/08/05 01:39:31;;;;;;;2.20;2.00;;;;;;;17.77;85.77;98230.03;4941851;28;102635;-59
2021/08/05 01:42:01;;;;;;;2.35;2.08;;;;;;;17.76;85.77;98219.53;4940004;28;103198;-58
2021/08/05 01:44:31;;;;;;;2.40;2.20;;;;;;;17.63;87.27;98222.69;4939501;28;104328;-58
2021/08/05 01:46:59;;;;;;;2.17;1.98;;;;;;;17.57;87.34;98217.19;4938192;28;102806;-59
2021/08/05 01:49:28;;;;;;;2.17;1.98;;;;;;;17.47;87.89;98211.97;4925272;28;102670;-58
2021/08/05 01:51:56;;;;;;;1.70;1.60;;;;;;;17.49;88.13;98222.50;4922426;28;103385;-59
2021/08/05 01:54:25;;;;;;;1.80;1.70;;;;;;;17.53;87.47;98223.81;4940422;28;103173;-58
2021/08/05 01:56:53;;;;;;;2.28;1.40;;;;;;;17.57;87.25;98222.53;4924841;28;102705;-58
2021/08/05 01:59:23;;;;;;;2.05;1.80;;;;;;;17.58;87.23;98213.50;4922285;28;103506;-59
2021/08/05 02:01:51;;;;;;;2.35;2.15;;;;;;;17.51;87.85;98217.81;4934201;28;104480;-59
2021/08/05 02:04:32;;;;;;;1.77;1.67;;;;;;;17.46;88.49;98215.63;4939799;28;103329;-59
2021/08/05 02:07:06;;;;;;;1.73;1.63;;;;;;;17.49;88.35;98214.50;4922544;28;103039;-59
2021/08/05 02:09:43;;;;;;;1.83;1.60;;;;;;;17.52;88.16;98214.13;4940697;28;102678;-60
2021/08/05 02:12:12;;;;;;;1.80;1.70;;;;;;;17.55;88.00;98220.00;4937126;28;103274;-59
2021/08/05 02:14:42;;;;;;;1.52;1.42;;;;;;;17.51;88.29;98207.97;4939427;28;103571;-60
2021/08/05 02:17:12;;;;;;;2.15;1.95;;;;;;;17.53;88.39;98211.31;4938999;28;102792;-60
2021/08/05 02:19:42;;;;;;;2.15;2.00;;;;;;;17.36;89.49;98209.63;4939132;28;102591;-60
2021/08/05 02:22:10;;;;;;;1.98;1.88;;;;;;;17.38;89.58;98212.94;4925324;28;104475;-60
2021/08/05 02:24:39;;;;;;;2.10;1.90;;;;;;;17.38;89.74;98216.47;4936881;28;104525;-60
2021/08/05 02:27:07;;;;;;;3.08;2.63;;;;;;;17.20;90.35;98205.09;4939811;28;104015;-59
2021/08/05 02:29:36;;;;;;;4.57;2.08;;;;;;;17.23;90.83;98202.13;4938340;28;102720;-59
2021/08/05 02:32:08;;;;;;;2.20;2.00;;;;;;;17.29;90.12;98204.09;4922579;28;104500;-60
2021/08/05 02:34:37;;;;;;;3.75;2.75;;;;;;;17.16;90.59;98203.75;4939788;28;103144;-60
2021/08/05 02:37:06;;;;;;;2.53;2.33;;;;;;;16.97;91.95;98205.88;4934153;28;103002;-60
2021/08/05 02:39:35;;;;;;;2.75;2.55;;;;;;;16.89;92.10;98201.34;4922163;28;103034;-60
2021/08/05 02:42:04;;;;;;;2.50;2.30;;;;;;;16.83;93.00;98201.16;4921340;28;104935;-60
2021/08/05 02:44:33;;;;;;;3.25;2.58;;;;;;;16.83;93.03;98191.31;4937873;28;103145;-60
2021/08/05 02:47:02;;;;;;;2.92;2.20;;;;;;;16.85;92.64;98192.00;4920758;28;102697;-60
2021/08/05 02:49:32;;;;;;;2.10;1.90;;;;;;;16.86;92.63;98195.50;4940153;28;102631;-60
2021/08/05 02:52:02;;;;;;;2.42;2.22;;;;;;;16.85;92.58;98194.66;4938774;28;103466;-60
2021/08/05 02:54:30;;;;;;;2.92;2.10;;;;;;;16.88;92.24;98193.50;4939136;28;103936;-59
2021/08/05 02:56:58;;;;;;;2.25;2.05;;;;;;;16.87;91.34;98190.00;4942227;28;102616;-60
2021/08/05 02:59:27;;;;;;;3.08;2.47;;;;;;;16.87;90.91;98197.19;4937406;28;103160;-60
2021/08/05 03:01:57;;;;;;;2.75;2.55;;;;;;;16.83;90.45;98190.50;4940813;28;104380;-60
2021/08/05 03:04:33;;;;;;;2.55;2.35;;;;;;;16.66;91.94;98190.44;4939411;28;103658;-60
2021/08/05 03:07:02;;;;;;;3.13;2.45;;;;;;;16.61;92.03;98187.44;4937278;28;102736;-60
2021/08/05 03:09:30;;;;;;;2.83;2.30;;;;;;;16.45;93.26;98187.31;4941972;28;102550;-60
2021/08/05 03:11:58;;;;;;;3.03;2.22;;;;;;;16.36;93.42;98193.63;4939320;28;104356;-59
2021/08/05 03:14:26;;;;;;;4.38;2.30;;;;;;;16.42;92.45;98192.13;4938975;28;103275;-59
2021/08/05 03:16:54;;;;;;;1.90;1.75;;;;;;;16.45;91.91;98189.97;4939741;28;102658;-60
2021/08/05 03:19:22;;;;;;;1.85;1.73;;;;;;;16.47;91.23;98185.34;4938874;28;102886;-59
2021/08/05 03:21:51;;;;;;;2.75;2.13;;;;;;;16.41;91.24;98185.97;4939177;28;105644;-59
2021/08/05 03:24:19;;;;;;;2.80;2.60;;;;;;;16.26;92.27;98176.88;4939119;28;103521;-59
2021/08/05 03:26:48;;;;;;;2.58;2.15;;;;;;;16.22;92.09;98187.03;4937991;28;102600;-58
2021/08/05 03:29:16;;;;;;;3.35;2.33;;;;;;;16.24;91.76;98193.06;4920360;28;102852;-58
2021/08/05 03:31:44;;;;;;;2.40;2.20;;;;;;;16.17;92.87;98185.81;4939311;28;104526;-58
2021/08/05 03:34:12;;;;;;;2.00;1.85;;;;;;;16.19;92.16;98191.84;4924604;28;103222;-58
2021/08/05 03:36:40;;;;;;;2.22;1.98;;;;;;;16.13;92.46;98184.50;4940496;28;102937;-58
2021/08/05 03:39:09;;;;;;;2.50;2.30;;;;;;;16.08;92.76;98190.28;4925322;28;102696;-58
2021/08/05 03:41:37;;;;;;;2.90;2.60;;;;;;;16.00;93.06;98187.56;4942529;28;104442;-58
2021/08/05 03:44:06;;;;;;;3.55;2.67;;;;;;;15.75;95.45;98190.22;4941965;28;104268;-58
2021/08/05 03:46:34;;;;;;;4.63;3.15;;;;;;;15.54;96.38;98180.75;4940441;28;102649;-59
2021/08/05 03:49:02;;;;;;;3.83;2.92;;;;;;;15.64;96.63;98184.16;4942120;28;102671;-58
2021/08/05 03:51:30;;;;;;;2.60;2.40;;;;;;;15.74;95.98;98191.22;4941426;28;104420;-58
2021/08/05 03:53:58;;;;;;;2.20;1.90;;;;;;;15.87;95.07;98191.63;4941715;28;104122;-59
2021/08/05 03:56:28;;;;;;;2.28;2.08;;;;;;;15.92;93.70;98194.66;4939573;28;102764;-59
2021/08/05 03:58:56;;;;;;;2.92;2.60;;;;;;;15.68;94.78;98190.00;4942500;28;104105;-59
2021/08/05 04:01:24;;;;;;;3.50;2.35;;;;;;;15.74;94.62;98192.06;4950350;28;104292;-59
2021/08/05 04:03:53;;;;;;;2.45;2.35;;;;;;;15.64;94.97;98191.28;4943123;28;104304;-59
2021/08/05 04:06:21;;;;;;;3.58;2.63;;;;;;;15.58;94.50;98192.75;4943467;28;102681;-59
2021/08/05 04:08:49;;;;;;;2.83;2.43;;;;;;;15.51;95.49;98186.38;4951101;28;102956;-59
2021/08/05 04:11:17;;;;;;;3.08;2.75;;;;;;;15.40;95.85;98188.41;4942305;28;103226;-59
2021/08/05 04:13:47;;;;;;;3.13;2.75;;;;;;;15.37;96.16;98189.56;4927268;28;103511;-60
2021/08/05 04:16:16;;;;;;;2.20;2.00;;;;;;;15.43;96.31;98188.94;4947215;28;102912;-60
2021/08/05 04:18:44;;;;;;;4.03;2.53;;;;;;;15.49;95.68;98188.38;4945836;28;102660;-60
2021/08/05 04:21:12;;;;;;;2.20;2.00;;;;;;;15.60;95.48;98182.81;4942244;28;103666;-60
2021/08/05 04:23:41;;;;;;;3.38;2.35;;;;;;;15.70;95.22;98182.69;4942243;28;103221;-61
2021/08/05 04:26:09;;;;;;;2.67;2.47;;;;;;;15.83;95.28;98195.63;4942410;28;102798;-75
2021/08/05 04:28:37;;;;;;;3.07;2.73;;;;;;;15.93;94.88;98191.84;4941568;28;102730;-60
2021/08/05 04:31:06;;;;;;;3.80;3.30;;;;;;;16.01;94.97;98185.72;4939971;28;103330;-60
2021/08/05 04:33:34;;;;;;;4.40;3.38;;;;;;;16.07;95.37;98190.44;4942728;28;103498;-61
2021/08/05 04:36:03;;;;;;;4.83;3.43;;;;;;;16.14;95.47;98197.63;4942854;28;102937;-60
2021/08/05 04:38:31;;;;;;;3.77;3.27;;;;;;;16.24;94.89;98197.53;4938947;28;103331;-61
2021/08/05 04:40:59;;;;;;;3.45;2.72;;;;;;;16.32;95.02;98208.25;4939999;28;103491;-60
2021/08/05 04:43:27;;;;;;;5.43;3.20;;;;;;;16.38;94.64;98202.28;4940890;28;104280;-60
2021/08/05 04:45:55;;;;;;;5.20;3.67;;;;;;;16.46;94.01;98207.66;4944863;28;102767;-61
2021/08/05 04:48:27;;;;;;;5.30;4.03;;;;;;;16.23;95.69;98206.50;4923876;28;102731;-60
2021/08/05 04:50:55;;;;;;;3.33;3.03;;;;;;;16.36;96.11;98208.78;4925986;28;104372;-61
2021/08/05 04:53:23;;;;;;;4.93;3.50;;;;;;;16.46;95.30;98204.97;4938839;28;104295;-60
2021/08/05 04:55:51;;;;;;;4.70;3.73;;;;;;;16.50;94.96;98201.00;4936818;28;102667;-60
2021/08/05 04:58:19;;;;;;;4.77;3.80;;;;;;;16.45;95.52;98202.50;4941347;28;102666;-61
2021/08/05 05:00:47;;;;;;;3.50;2.83;;;;;;;16.46;95.21;98196.97;4940715;28;104381;-60
2021/08/05 05:03:17;;;;;;;2.70;2.50;;;;;;;16.64;94.73;98194.25;4935107;28;104485;-60
2021/08/05 05:05:47;;;;;;;3.97;3.57;;;;;;;16.75;94.71;98196.63;4911846;28;102729;-60
2021/08/05 05:08:18;;;;;;;3.75;2.83;;;;;;;16.84;94.46;98197.50;4938587;28;102632;-60
2021/08/05 05:10:47;;;;;;;6.28;3.38;;;;;;;16.89;94.01;98197.84;4936077;28;104534;-61
2021/08/05 05:13:16;;;;;;;3.17;2.88;;;;;;;16.96;93.85;98193.50;4912053;28;104853;-59
2021/08/05 05:15:45;;;;;;;4.20;2.70;;;;;;;17.06;93.60;98196.91;4927604;28;103114;-59
2021/08/05 05:18:14;;;;;;;4.18;2.92;;;;;;;17.09;93.01;98191.22;4932968;28;103444;-60
2021/08/05 05:20:42;;;;;;;3.28;2.42;;;;;;;17.17;92.38;98184.06;4924466;28;103434;-61
2021/08/05 05:23:12;;;;;;;2.33;2.10;;;;;;;17.26;92.25;98187.59;4933178;28;103198;-59
2021/08/05 05:25:41;;;;;;;2.90;2.65;;;;;;;17.25;91.59;98186.75;4928639;28;102702;-60
2021/08/05 05:28:10;;;;;;;3.15;2.42;;;;;;;17.32;91.65;98182.41;4929257;28;102845;-60
2021/08/05 05:30:38;;;;;;;2.20;2.00;;;;;;;17.36;91.29;98188.25;4927015;28;103264;-59
2021/08/05 05:33:07;;;;;;;2.90;2.65;;;;;;;17.36;90.96;98188.25;4930089;28;104489;-59
2021/08/05 05:35:35;;;;;;;2.60;2.35;;;;;;;17.36;91.11;98188.25;4931860;28;102707;-60
2021/08/05 05:38:05;;;;;;;3.67;2.30;;;;;;;17.37;91.37;98185.41;4930324;28;102711;-60
2021/08/05 05:40:35;;;;;;;3.33;2.55;;;;;;;17.41;91.27;98188.59;4913271;28;104386;-60
2021/08/05 05:43:04;;;;;;;4.35;3.13;;;;;;;17.44;91.42;98190.94;4937284;28;105512;-60
2021/08/05 05:45:33;;;;;;;4.03;2.78;;;;;;;17.45;91.33;98189.09;4935042;28;102889;-60
2021/08/05 05:48:02;;;;;;;2.17;1.98;;;;;;;17.57;91.18;98190.50;4938912;28;102631;-61
2021/08/05 05:50:30;;;;;;;2.92;2.63;;;;;;;17.72;90.83;98194.97;4935337;28;103344;-60
2021/08/05 05:52:59;;;;;;;2.70;2.30;;;;;;;17.85;90.17;98184.59;4934330;28;103762;-60
2021/08/05 05:55:27;;;;;;;2.72;2.47;;;;;;;18.12;89.46;98185.25;4935366;28;103021;-60
2021/08/05 05:57:58;;;;;;;5.97;3.58;;;;;;;18.24;87.86;98178.53;4935270;28;102648;-60
2021/08/05 06:00:28;;;;;;;3.63;2.97;;;;;;;18.16;87.07;98183.91;4933975;28;103322;-60
2021/08/05 06:02:57;;;;;;;3.78;3.40;;;;;;;18.28;86.73;98185.19;4932024;28;103051;-61
2021/08/05 06:05:25;;;;;;;3.47;3.05;;;;;;;18.40;86.03;98184.66;4937104;28;102791;-61
2021/08/05 06:07:53;;;;;;;4.20;3.03;;;;;;;18.34;86.35;98184.50;4940247;28;102767;-61
2021/08/05 06:10:23;;;;;;;3.33;2.78;;;;;;;18.34;85.92;98168.47;4937667;28;103353;-60
2021/08/05 06:12:51;;;;;;;2.53;2.33;;;;;;;18.54;85.02;98175.13;4934999;28;103448;-61
2021/08/05 06:15:21;;;;;;;4.50;4.10;;;;;;;18.23;84.79;98176.88;4935773;28;102655;-61
2021/08/05 06:17:49;;;;;;;5.75;3.17;;;;;;;18.40;84.81;98183.84;4936680;28;104654;-61
2021/08/05 06:20:20;;;;;;;3.08;2.88;;;;;;;18.49;83.32;98177.50;4938746;28;104559;-61
2021/08/05 06:22:49;;;;;;;3.50;3.20;;;;;;;18.56;83.53;98174.94;4920068;28;104391;-61
2021/08/05 06:25:18;;;;;;;3.20;2.90;;;;;;;18.63;83.85;98168.75;4935332;28;102670;-61
2021/08/05 06:27:47;;;;;;;2.95;2.75;;;;;;;18.70;82.66;98168.84;4941072;28;102686;-61
2021/08/05 06:30:17;;;;;;;3.08;2.58;;;;;;;18.98;80.96;98162.84;4934886;28;105429;-61
2021/08/05 06:32:48;;;;;;;3.88;2.60;;;;;;;18.85;82.07;98169.78;4936259;28;103212;-61
2021/08/05 06:35:17;;;;;;;5.53;3.35;;;;;;;18.97;81.37;98177.28;4941266;28;102694;-61
2021/08/05 06:37:45;;;;;;;3.38;2.53;;;;;;;19.03;81.20;98165.03;4937622;28;102755;-61
2021/08/05 06:40:14;;;;;;;4.28;3.05;;;;;;;19.26;78.74;98170.38;4939534;28;104433;-60
2021/08/05 06:42:51;;;;;;;4.32;3.00;;;;;;;19.23;79.76;98168.06;4936496;28;104323;-61
2021/08/05 06:45:19;;;;;;;3.58;3.28;;;;;;;19.37;80.37;98169.97;4933063;28;103079;-61
2021/08/05 06:47:50;;;;;;;5.32;3.10;;;;;;;19.28;79.31;98168.38;4938244;28;102708;-61
2021/08/05 06:50:19;;;;;;;3.20;2.90;;;;;;;19.58;78.30;98164.81;4940057;28;103322;-61
2021/08/05 06:52:48;;;;;;;4.18;2.72;;;;;;;19.77;77.65;98164.31;4939376;28;103359;-61
2021/08/05 06:55:16;;;;;;;3.88;2.42;;;;;;;20.04;76.51;98166.38;4939299;28;102748;-61
2021/08/05 06:57:44;;;;;;;2.47;2.28;;;;;;;20.26;75.42;98163.84;4940576;28;102783;-61
2021/08/05 07:00:14;;;;;;;2.85;2.35;;;;;;;20.29;75.41;98169.69;4938537;28;103221;-61
2021/08/05 07:02:42;;;;;;;2.55;2.33;;;;;;;20.44;74.78;98173.19;4939410;28;103372;-61
2021/08/05 07:05:13;;;;;;;3.00;2.70;;;;;;;20.79;74.03;98183.16;4921039;28;102662;-62
2021/08/05 07:07:43;;;;;;;5.68;3.08;;;;;;;20.39;75.46;98172.91;4944170;28;102773;-61
2021/08/05 07:10:12;;;;;;;2.72;2.20;;;;;;;20.65;74.57;98164.41;4938004;28;103593;-61
2021/08/05 07:12:40;;;;;;;4.45;2.15;;;;;;;20.78;74.41;98162.69;4920597;28;103233;-61
2021/08/05 07:15:09;;;;;;;3.60;2.63;;;;;;;20.26;73.28;98171.91;4939895;28;103756;-61
2021/08/05 07:17:40;;;;;;;3.95;2.42;;;;;;;20.03;71.81;98167.41;4938884;28;102692;-61
2021/08/05 07:20:10;;;;;;;4.05;2.60;;;;;;;19.89;74.15;98170.91;4937911;28;104507;-61
2021/08/05 07:22:42;;;;;;;4.28;2.60;;;;;;;19.71;74.23;98170.38;4941927;28;104457;-61
2021/08/05 07:25:12;;;;;;;3.63;2.20;;;;;;;19.77;75.14;98169.66;4938980;28;102684;-61
2021/08/05 07:27:41;;;;;;;2.65;2.45;;;;;;;19.94;74.43;98171.19;4944015;28;103111;-61
2021/08/05 07:30:12;;;;;;;2.10;1.90;;;;;;;20.30;74.67;98163.28;4936019;28;103326;-61
2021/08/05 07:32:41;;;;;;;2.65;2.45;;;;;;;19.81;77.41;98164.78;4938795;28;103064;-61
2021/08/05 07:35:10;;;;;;;3.28;2.25;;;;;;;19.92;75.97;98157.13;4937658;28;102719;-61
2021/08/05 07:37:38;;;;;;;3.95;2.80;;;;;;;19.56;76.01;98159.63;4942828;28;102998;-61
2021/08/05 07:40:09;;;;;;;2.55;2.22;;;;;;;20.18;74.22;98162.06;4939321;28;103432;-62
2021/08/05 07:42:37;;;;;;;2.35;2.15;;;;;;;20.49;75.01;98149.31;4916580;28;103300;-61
2021/08/05 07:45:06;;;;;;;3.83;2.40;;;;;;;20.52;74.36;98153.50;4937009;28;102745;-61
2021/08/05 07:47:35;;;;;;;2.85;2.03;;;;;;;20.81;71.70;98153.44;4938646;28;102928;-61
2021/08/05 07:50:03;;;;;;;3.72;2.28;;;;;;;20.70;71.29;98146.72;4940615;28;103207;-60
2021/08/05 07:52:32;;;;;;;3.22;2.17;;;;;;;21.12;70.84;98151.34;4940130;28;104638;-61
2021/08/05 07:55:03;;;;;;;2.22;2.03;;;;;;;21.23;69.73;98145.47;4938319;28;102537;-61
2021/08/05 07:57:33;;;;;;;3.33;2.20;;;;;;;21.17;70.65;98148.91;4941463;28;102804;-61
2021/08/05 08:00:01;;;;;;;2.38;2.17;;;;;;;21.26;70.67;98146.94;4937694;28;103349;-61
2021/08/05 08:02:40;;;;;;;2.50;2.30;;;;;;;21.47;70.00;98146.13;4942484;28;104481;-62
2021/08/05 08:05:11;;;;;;;3.00;2.13;;;;;;;21.29;69.93;98142.03;4939828;28;103148;-62
2021/08/05 08:07:39;;;;;;;2.45;1.98;;;;;;;21.61;69.13;98155.97;4938866;28;102735;-62
2021/08/05 08:10:09;;;;;;;3.90;2.38;;;;;;;21.57;67.42;98152.00;4935972;28;103341;-61
2021/08/05 08:12:39;;;;;;;3.17;2.38;;;;;;;21.64;68.48;98150.22;4938019;28;103822;-61
2021/08/05 08:15:09;;;;;;;4.18;2.58;;;;;;;21.29;69.83;98144.72;4938934;28;102524;-61
2021/08/05 08:17:37;;;;;;;2.90;2.50;;;;;;;21.49;68.24;98149.44;4924145;28;102734;-61
2021/08/05 08:20:07;;;;;;;2.05;1.85;;;;;;;21.77;68.24;98150.31;4933558;28;103654;-61
2021/08/05 08:22:35;;;;;;;2.97;2.30;;;;;;;21.85;67.07;98155.53;4938124;28;104423;-61
2021/08/05 08:25:04;;;;;;;3.15;2.85;;;;;;;21.92;66.57;98159.16;4939791;28;102792;-61
2021/08/05 08:27:32;;;;;;;2.72;2.50;;;;;;;21.79;65.33;98148.25;4939418;28;102895;-62
2021/08/05 08:30:01;;;;;;;2.67;2.17;;;;;;;22.11;67.03;98145.03;4938201;28;103441;-62
2021/08/05 08:32:29;;;;;;;4.53;2.45;;;;;;;22.26;65.64;98134.97;4937268;28;103184;-62
2021/08/05 08:34:59;;;;;;;2.13;1.90;;;;;;;22.25;64.13;98133.31;4939024;28;102897;-61
2021/08/05 08:37:27;;;;;;;2.50;2.28;;;;;;;22.24;64.66;98126.25;4939039;28;102728;-61
2021/08/05 08:39:55;;;;;;;2.75;2.13;;;;;;;22.37;65.29;98137.09;4939329;28;102742;-61
2021/08/05 08:42:23;;;;;;;3.05;2.47;;;;;;;22.51;63.68;98122.66;4945476;28;103151;-61
2021/08/05 08:44:51;;;;;;;2.47;2.28;;;;;;;22.49;63.35;98134.66;4941101;28;102635;-62
2021/08/05 08:47:23;;;;;;;3.05;2.38;;;;;;;22.26;64.10;98129.56;4942550;28;103064;-62
2021/08/05 08:49:51;;;;;;;2.95;2.10;;;;;;;22.03;65.73;98126.34;4943107;28;105657;-61
2021/08/05 08:52:25;;;;;;;2.83;2.20;;;;;;;22.20;65.23;98130.41;4942053;28;102639;-61
2021/08/05 08:54:55;;;;;;;2.60;2.35;;;;;;;22.21;64.67;98137.41;4940414;28;102587;-61
2021/08/05 08:57:29;;;;;;;2.30;2.10;;;;;;;22.27;65.24;98136.63;4941951;28;102708;-61
2021/08/05 08:59:58;;;;;;;3.25;1.95;;;;;;;22.61;64.69;98129.56;4940581;28;104380;-61
2021/08/05 09:02:28;;;;;;;2.55;2.35;;;;;;;22.65;63.17;98125.47;4939756;28;103495;-61
2021/08/05 09:04:57;;;;;;;2.22;1.88;;;;;;;23.06;63.04;98124.38;4939217;28;102715;-61
2021/08/05 09:07:25;;;;;;;2.70;2.50;;;;;;;23.48;63.05;98120.53;4941223;28;103215;-60
2021/08/05 09:09:54;;;;;;;2.30;2.10;;;;;;;23.91;61.60;98125.50;4940220;28;104720;-61
2021/08/05 09:12:22;;;;;;;2.67;2.42;;;;;;;23.65;61.12;98121.78;4940684;28;108160;-61
2021/08/05 09:14:52;;;;;;;3.33;2.45;;;;;;;23.09;62.93;98125.81;4939952;28;102569;-61
2021/08/05 09:17:24;;;;;;;2.33;2.13;;;;;;;24.15;60.30;98127.56;4922495;28;102723;-61
2021/08/05 09:19:55;;;;;;;3.50;2.78;;;;;;;25.17;58.07;98116.84;4918051;28;104430;-61
2021/08/05 09:22:34;;;;;;;2.28;2.08;;;;;;;26.03;56.82;98117.84;4939590;28;103701;-61
2021/08/05 09:25:22;;;;;;;2.60;2.40;;;;;;;25.56;56.01;98111.19;4936743;28;102771;-59
2021/08/05 09:27:52;;;;;;;2.22;1.80;;;;;;;26.48;52.64;98111.16;4939755;28;103831;-60
2021/08/05 09:30:32;;;;;;;2.35;2.15;;;;;;;25.68;55.13;98114.84;4936522;28;104521;-60
2021/08/05 09:33:05;;;;;;;2.30;2.10;;;;;;;24.41;58.86;98110.50;4940203;28;104244;-60
2021/08/05 09:35:35;;;;;;;1.95;1.75;;;;;;;24.67;58.90;98110.41;4939946;28;102798;-60
2021/08/05 09:38:24;;;;;;;5.13;2.45;;;;;;;24.50;58.72;98104.66;4938835;28;103222;-60
2021/08/05 09:41:07;;;;;;;2.35;1.58;;;;;;;25.01;57.22;98106.53;4937871;28;104469;-61
2021/08/05 09:43:36;;;;;;;2.92;1.65;;;;;;;24.86;57.62;98103.28;4939037;28;103113;-61
2021/08/05 09:46:04;;;;;;;3.30;2.45;;;;;;;24.65;57.64;98099.81;4938745;28;102945;-61
2021/08/05 09:48:34;;;;;;;2.33;2.00;;;;;;;24.49;59.64;98103.00;4922834;28;103020;-62
2021/08/05 09:51:15;;;;;;;4.00;2.33;;;;;;;24.76;58.75;98104.53;4900456;28;106765;-59
2021/08/05 09:54:03;;;;;;;5.50;2.28;;;;;;;25.85;55.99;98101.59;4922188;28;103308;-61
2021/08/05 09:56:35;;;;;;;2.00;1.90;;;;;;;26.01;54.87;98094.75;4920483;28;102719;-61
2021/08/05 09:59:05;;;;;;;2.50;1.90;;;;;;;26.66;52.33;98088.66;4919812;28;102888;-61
2021/08/05 10:01:34;;;;;;;2.08;1.85;;;;;;;26.85;52.48;98086.75;4904790;28;103555;-60
2021/08/05 10:04:28;;;;;;;1.90;1.80;;;;;;;27.70;53.92;98085.50;4918155;28;103511;-60
2021/08/05 10:06:59;;;;;;;1.90;1.80;;;;;;;27.00;52.12;98082.56;4917098;28;102841;-60
2021/08/05 10:09:28;;;;;;;3.60;2.17;;;;;;;27.33;51.60;98073.97;4918211;28;103901;-60
2021/08/05 10:12:13;;;;;;;3.58;1.92;;;;;;;27.33;51.03;98073.16;4916154;28;106450;-60
2021/08/05 10:14:42;;;;;;;2.05;1.85;;;;;;;26.28;52.71;98072.63;4915367;28;103198;-61
2021/08/05 10:17:11;;;;;;;2.03;1.63;;;;;;;27.67;51.89;98074.28;4918663;28;103036;-61
2021/08/05 10:19:41;;;;;;;3.05;2.00;;;;;;;28.21;50.65;98073.16;4916551;28;102818;-60
2021/08/05 10:22:12;;;;;;;2.63;2.00;;;;;;;27.72;49.94;98069.81;4897961;28;104497;-61
2021/08/05 10:24:44;;;;;;;2.25;1.98;;;;;;;27.72;50.79;98061.69;4919718;28;103364;-61
2021/08/05 10:27:15;;;;;;;2.97;1.73;;;;;;;27.48;50.35;98068.94;4918231;28;102942;-61
2021/08/05 10:29:45;;;;;;;1.90;1.80;;;;;;;27.28;50.60;98062.19;4920464;28;103062;-61
2021/08/05 10:32:15;;;;;;;3.35;1.77;;;;;;;26.29;52.04;98068.06;4918221;28;104538;-61
2021/08/05 10:34:44;;;;;;;2.50;1.70;;;;;;;27.39;51.14;98059.50;4918276;28;103268;-62
2021/08/05 10:37:14;;;;;;;2.22;1.70;;;;;;;27.59;50.07;98059.19;4919947;28;102795;-61
2021/08/05 10:39:44;;;;;;;4.00;1.63;;;;;;;27.53;49.45;98049.28;4918625;28;103206;-61
2021/08/05 10:42:17;;;;;;;2.13;1.95;;;;;;;27.45;49.14;98046.91;4900637;28;104658;-61
2021/08/05 10:44:46;;;;;;;1.95;1.80;;;;;;;26.98;50.31;98040.50;4921421;28;104749;-60
2021/08/05 10:47:19;;;;;;;1.98;1.77;;;;;;;26.55;51.54;98042.53;4925196;28;102933;-60
2021/08/05 11:13:21;;;;;;;2.47;1.30;;;;;;;25.81;50.83;98022.75;4939448;28;102771;-62
2021/08/05 11:15:51;;;;;;;2.33;1.45;;;;;;;25.29;55.69;98032.09;4953266;28;102696;-63
2021/08/05 11:21:36;;;;;;;1.45;1.30;;;;;;;24.45;58.70;98023.47;4912636;28;105185;-63
2021/08/05 11:24:06;;;;;;;4.88;1.90;;;;;;;23.59;63.46;98028.25;4916882;28;102866;-64
2021/08/05 11:26:34;;;;;;;2.35;1.50;;;;;;;22.87;65.38;98024.69;4914283;28;103047;-64
2021/08/05 11:29:02;;;;;;;1.65;1.55;;;;;;;22.78;69.00;98020.50;4918116;28;104225;-64
2021/08/05 11:31:37;;;;;;;2.08;1.50;;;;;;;23.36;68.54;98021.59;4901351;28;104490;-63
2021/08/05 11:34:09;;;;;;;1.88;1.73;;;;;;;23.12;64.80;98017.66;4918322;28;102637;-64
2021/08/05 11:36:43;;;;;;;2.03;1.80;;;;;;;23.13;63.25;98010.41;4919302;28;102880;-63
2021/08/05 11:39:16;;;;;;;1.63;1.50;;;;;;;23.53;64.34;98006.69;4919498;28;103795;-63
2021/08/05 11:41:50;;;;;;;2.38;1.50;;;;;;;23.31;63.30;98005.22;4916738;28;103675;-63
2021/08/05 11:44:27;;;;;;;1.92;1.40;;;;;;;23.93;58.90;97991.25;4919182;28;102622;-64
2021/08/05 11:47:27;;;;;;;1.55;1.33;;;;;;;25.28;59.49;97986.38;4918740;28;102546;-63
2021/08/05 11:50:11;;;;;;;2.95;1.50;;;;;;;25.55;56.09;97987.81;4918079;28;103716;-63
2021/08/05 11:52:42;;;;;;;4.05;1.30;;;;;;;26.22;54.39;97986.06;4918309;28;104239;-63
2021/08/05 11:55:15;;;;;;;2.88;1.33;;;;;;;26.10;54.83;97988.72;4918456;28;102605;-64
2021/08/05 11:57:45;;;;;;;2.22;1.20;;;;;;;25.76;51.50;97987.41;4920423;28;102726;-62
2021/08/05 12:00:17;;;;;;;1.80;1.20;;;;;;;26.13;52.92;97979.31;4904839;28;104561;-62
2021/08/05 12:02:46;;;;;;;1.42;1.23;;;;;;;26.61;52.57;97969.31;4922927;28;103232;-62
2021/08/05 12:05:17;;;;;;;2.83;1.20;;;;;;;26.88;51.60;97959.78;4909000;28;104217;-62